Time;durP1;ratioP1;P1;durP2;ratioP2;P2;SDS_P1;SDS_P2;PMS_P1;PMS_P2;Temp;Humidity;BMP_temperature;BMP_pressure;BME280_temperature;BME280_humidity;BME280_pressure;Samples;Min_cycle;Max_cycle;Signal;HPM_P1;HPM_P2
2022/03/31 00:01:42;;;;;;;;;;;8.90;75.60;;;;;;5055653;28;19909;-66
2022/03/31 00:04:07;;;;;;;;;;;8.90;75.70;;;;;;5041729;28;20288;-66
2022/03/31 00:06:33;;;;;;;;;;;8.90;75.80;;;;;;5057258;28;19966;-66
2022/03/31 00:08:58;;;;;;;;;;;8.90;75.70;;;;;;5053678;28;19920;-66
2022/03/31 00:11:24;;;;;;;;;;;8.80;75.60;;;;;;5057543;28;19939;-66
2022/03/31 00:13:49;;;;;;;;;;;8.90;75.80;;;;;;5057675;28;19971;-66
2022/03/31 00:16:15;;;;;;;;;;;8.90;75.70;;;;;;5042877;28;19939;-66
2022/03/31 00:18:40;;;;;;;;;;;8.80;75.80;;;;;;5060120;28;20031;-66
2022/03/31 00:21:06;;;;;;;;;;;8.80;75.80;;;;;;5060155;28;20015;-66
2022/03/31 00:23:36;;;;;;;;;;;8.80;75.80;;;;;;5054636;28;19920;-66
2022/03/31 00:26:02;;;;;;;;;;;8.80;75.80;;;;;;5054554;28;19920;-66
2022/03/31 00:28:28;;;;;;;;;;;8.80;75.80;;;;;;5059729;28;19939;-66
2022/03/31 00:30:53;;;;;;;;;;;8.80;75.90;;;;;;5061141;28;19966;-66
2022/03/31 00:33:19;;;;;;;;;;;8.80;76.00;;;;;;5047979;28;19923;-66
2022/03/31 00:35:44;;;;;;;;;;;8.70;75.90;;;;;;5053493;28;19920;-66
2022/03/31 00:38:11;;;;;;;;;;;8.80;76.10;;;;;;5058068;28;19962;-66
2022/03/31 00:40:36;;;;;;;;;;;8.80;76.10;;;;;;5055180;28;19952;-66
2022/03/31 00:43:02;;;;;;;;;;;8.70;76.00;;;;;;5059490;28;20657;-66
2022/03/31 00:45:29;;;;;;;;;;;8.70;75.90;;;;;;5057412;28;19912;-66
2022/03/31 00:47:55;;;;;;;;;;;8.70;76.00;;;;;;5045052;28;19920;-66
2022/03/31 00:50:25;;;;;;;;;;;8.70;76.00;;;;;;5055099;28;20603;-66
2022/03/31 00:52:51;;;;;;;;;;;8.70;76.10;;;;;;5055984;28;19936;-66
2022/03/31 00:55:18;;;;;;;;;;;8.70;76.00;;;;;;5060271;28;20564;-66
2022/03/31 00:57:44;;;;;;;;;;;8.70;76.10;;;;;;5056987;28;19913;-66
2022/03/31 01:00:10;;;;;;;;;;;8.70;76.10;;;;;;5054681;28;19936;-66
2022/03/31 01:02:37;;;;;;;;;;;8.70;76.10;;;;;;5055292;28;19913;-66
2022/03/31 01:05:03;;;;;;;;;;;8.60;76.00;;;;;;5056815;28;19940;-66
2022/03/31 01:07:28;;;;;;;;;;;8.60;76.20;;;;;;5048071;28;20238;-66
2022/03/31 01:09:54;;;;;;;;;;;8.60;76.20;;;;;;5053546;28;19924;-66
2022/03/31 01:12:20;;;;;;;;;;;8.70;76.30;;;;;;5059103;28;19917;-66
2022/03/31 01:14:45;;;;;;;;;;;8.60;76.30;;;;;;5058244;28;20019;-66
2022/03/31 01:17:11;;;;;;;;;;;8.60;76.30;;;;;;5054312;28;19915;-66
2022/03/31 01:19:36;;;;;;;;;;;8.60;76.30;;;;;;5061750;28;19920;-66
2022/03/31 01:22:02;;;;;;;;;;;8.60;76.30;;;;;;5059258;28;19952;-66
2022/03/31 01:24:28;;;;;;;;;;;8.60;76.30;;;;;;5057226;28;19908;-66
2022/03/31 01:26:54;;;;;;;;;;;8.60;76.40;;;;;;5058493;28;19963;-66
2022/03/31 01:29:21;;;;;;;;;;;8.60;76.40;;;;;;5063932;28;20353;-67
2022/03/31 01:31:47;;;;;;;;;;;8.60;76.30;;;;;;5035950;28;20007;-66
2022/03/31 01:34:12;;;;;;;;;;;8.60;76.40;;;;;;5053631;28;20337;-66
2022/03/31 01:36:38;;;;;;;;;;;8.60;76.40;;;;;;5058987;28;20632;-66
2022/03/31 01:39:04;;;;;;;;;;;8.60;76.30;;;;;;5060029;28;19934;-66
2022/03/31 01:41:30;;;;;;;;;;;8.50;76.50;;;;;;5054457;28;19977;-66
2022/03/31 01:43:55;;;;;;;;;;;8.50;76.50;;;;;;5055264;28;19968;-66
2022/03/31 01:46:21;;;;;;;;;;;8.50;76.50;;;;;;5062695;28;19909;-66
2022/03/31 01:48:46;;;;;;;;;;;8.50;76.60;;;;;;5057444;28;19917;-66
2022/03/31 01:51:12;;;;;;;;;;;8.50;76.60;;;;;;5058382;28;19919;-66
2022/03/31 01:53:38;;;;;;;;;;;8.50;76.60;;;;;;5060016;28;19909;-66
2022/03/31 01:56:04;;;;;;;;;;;8.50;76.60;;;;;;5054475;28;19915;-66
2022/03/31 01:58:30;;;;;;;;;;;8.50;76.60;;;;;;5055960;28;19919;-66
2022/03/31 02:00:57;;;;;;;;;;;8.50;76.60;;;;;;5059620;28;19917;-67
2022/03/31 02:03:23;;;;;;;;;;;8.50;76.70;;;;;;5060060;28;20381;-66
2022/03/31 02:05:49;;;;;;;;;;;8.40;76.60;;;;;;5054970;28;19948;-66
2022/03/31 02:08:14;;;;;;;;;;;8.50;76.70;;;;;;5055467;28;19963;-66
2022/03/31 02:10:41;;;;;;;;;;;8.40;76.70;;;;;;5060299;28;19970;-66
2022/03/31 02:13:08;;;;;;;;;;;8.40;76.80;;;;;;5061098;28;19971;-66
2022/03/31 02:15:34;;;;;;;;;;;8.40;76.90;;;;;;5051765;28;19936;-66
2022/03/31 02:18:02;;;;;;;;;;;8.40;76.80;;;;;;5054557;28;19940;-67
2022/03/31 02:20:30;;;;;;;;;;;8.40;76.90;;;;;;5061320;28;19959;-66
2022/03/31 02:22:56;;;;;;;;;;;8.40;77.00;;;;;;5053020;28;20003;-66
2022/03/31 02:25:22;;;;;;;;;;;8.40;76.90;;;;;;5050957;28;19909;-66
2022/03/31 02:27:49;;;;;;;;;;;8.40;77.00;;;;;;5058590;28;20006;-66
2022/03/31 02:30:15;;;;;;;;;;;8.40;77.10;;;;;;5061286;28;19926;-66
2022/03/31 02:32:42;;;;;;;;;;;8.40;77.10;;;;;;5057304;28;19913;-66
2022/03/31 02:35:08;;;;;;;;;;;8.40;77.10;;;;;;5054380;28;20007;-66
2022/03/31 02:37:34;;;;;;;;;;;8.40;77.40;;;;;;5059710;28;20990;-66
2022/03/31 02:40:00;;;;;;;;;;;8.30;77.00;;;;;;5055433;28;19928;-66
2022/03/31 02:42:26;;;;;;;;;;;8.30;77.10;;;;;;5052694;28;19912;-66
2022/03/31 02:44:51;;;;;;;;;;;8.30;77.10;;;;;;5058437;28;19916;-66
2022/03/31 02:47:17;;;;;;;;;;;8.30;77.10;;;;;;5052925;28;19917;-66
2022/03/31 02:49:43;;;;;;;;;;;8.30;77.10;;;;;;5057903;28;19912;-66
2022/03/31 02:52:09;;;;;;;;;;;8.30;77.20;;;;;;5054451;28;19919;-66
2022/03/31 02:57:18;;;;;;;;;;;8.30;77.20;;;;;;5053116;28;19969;-66
2022/03/31 02:59:45;;;;;;;;;;;8.30;77.20;;;;;;5047677;28;19912;-66
2022/03/31 03:02:10;;;;;;;;;;;8.30;77.30;;;;;;5047682;28;20104;-66
2022/03/31 03:04:36;;;;;;;;;;;8.30;77.20;;;;;;5051875;28;20376;-66
2022/03/31 03:07:02;;;;;;;;;;;8.30;77.30;;;;;;5055409;28;19916;-66
2022/03/31 03:09:27;;;;;;;;;;;8.30;77.30;;;;;;5054047;28;20395;-66
2022/03/31 03:11:53;;;;;;;;;;;8.30;77.30;;;;;;5055968;28;19909;-66
2022/03/31 03:14:18;;;;;;;;;;;8.30;77.30;;;;;;5053214;28;19916;-66
2022/03/31 03:16:44;;;;;;;;;;;8.30;77.30;;;;;;5049709;28;19913;-66
2022/03/31 03:19:10;;;;;;;;;;;8.30;77.30;;;;;;5055517;28;20003;-66
2022/03/31 03:21:36;;;;;;;;;;;8.30;77.40;;;;;;5054579;28;20506;-66
2022/03/31 03:24:03;;;;;;;;;;;8.30;77.40;;;;;;5048176;28;20022;-66
2022/03/31 03:26:28;;;;;;;;;;;8.20;77.30;;;;;;5057130;28;19908;-66
2022/03/31 03:28:54;;;;;;;;;;;8.20;77.40;;;;;;5038931;28;19919;-66
2022/03/31 03:31:20;;;;;;;;;;;8.20;77.50;;;;;;5055559;28;19917;-66
2022/03/31 03:33:46;;;;;;;;;;;8.20;77.50;;;;;;5054420;28;20008;-66
2022/03/31 03:36:14;;;;;;;;;;;8.20;77.60;;;;;;5059637;28;19948;-66
2022/03/31 03:38:40;;;;;;;;;;;8.20;77.60;;;;;;5050827;28;19916;-66
2022/03/31 03:41:06;;;;;;;;;;;8.20;77.60;;;;;;5053840;28;19916;-66
2022/03/31 03:43:32;;;;;;;;;;;8.20;77.70;;;;;;5054054;28;19912;-66
2022/03/31 03:45:57;;;;;;;;;;;8.20;77.70;;;;;;5046536;28;19909;-66
2022/03/31 03:48:23;;;;;;;;;;;8.20;77.80;;;;;;5053143;28;20488;-66
2022/03/31 03:50:48;;;;;;;;;;;8.20;77.70;;;;;;5043372;28;20402;-66
2022/03/31 03:53:14;;;;;;;;;;;8.10;77.70;;;;;;5054957;28;19913;-66
2022/03/31 03:55:39;;;;;;;;;;;8.20;77.80;;;;;;5072324;28;19920;-66
2022/03/31 03:58:05;;;;;;;;;;;8.20;77.90;;;;;;5054472;28;19969;-66
2022/03/31 04:00:31;;;;;;;;;;;8.20;77.90;;;;;;5054496;28;19966;-66
2022/03/31 04:02:56;;;;;;;;;;;8.20;77.90;;;;;;5056172;28;19909;-66
2022/03/31 04:05:22;;;;;;;;;;;8.10;77.90;;;;;;5053512;28;20001;-66
2022/03/31 04:07:48;;;;;;;;;;;8.10;78.00;;;;;;5049032;28;19913;-67
2022/03/31 04:10:13;;;;;;;;;;;8.10;78.10;;;;;;5053207;28;19944;-66
2022/03/31 04:12:39;;;;;;;;;;;8.10;78.10;;;;;;5050843;28;19917;-66
2022/03/31 04:15:06;;;;;;;;;;;8.10;78.10;;;;;;5056288;28;20253;-66
2022/03/31 04:17:31;;;;;;;;;;;8.10;78.20;;;;;;5052341;28;19917;-66
2022/03/31 04:19:57;;;;;;;;;;;8.10;78.20;;;;;;5051756;28;19916;-66
2022/03/31 04:22:22;;;;;;;;;;;8.10;78.20;;;;;;5051068;28;19915;-67
2022/03/31 04:24:48;;;;;;;;;;;8.10;78.20;;;;;;5044410;28;19920;-66
2022/03/31 04:27:14;;;;;;;;;;;8.10;78.20;;;;;;5055378;28;19924;-66
2022/03/31 04:29:39;;;;;;;;;;;8.10;78.20;;;;;;5052410;28;19916;-67
2022/03/31 04:32:05;;;;;;;;;;;8.10;78.40;;;;;;5055649;28;19916;-66
2022/03/31 04:34:30;;;;;;;;;;;8.00;78.30;;;;;;5050769;28;20312;-66
2022/03/31 04:36:56;;;;;;;;;;;8.10;78.50;;;;;;5045838;28;20565;-66
2022/03/31 04:39:21;;;;;;;;;;;8.10;78.40;;;;;;5053002;28;19909;-67
2022/03/31 04:41:47;;;;;;;;;;;8.10;78.40;;;;;;5049286;28;19919;-67
2022/03/31 04:44:13;;;;;;;;;;;8.10;78.50;;;;;;5054507;28;19940;-66
2022/03/31 04:46:39;;;;;;;;;;;8.10;78.60;;;;;;5042817;28;20011;-66
2022/03/31 04:49:05;;;;;;;;;;;8.00;78.40;;;;;;5053408;28;20094;-66
2022/03/31 04:51:30;;;;;;;;;;;8.00;78.50;;;;;;5050316;28;19986;-66
2022/03/31 04:53:56;;;;;;;;;;;8.00;78.40;;;;;;5053085;28;19929;-67
2022/03/31 04:56:22;;;;;;;;;;;8.00;78.50;;;;;;5054969;28;19912;-67
2022/03/31 04:58:47;;;;;;;;;;;8.00;78.50;;;;;;5041744;28;19912;-66
2022/03/31 05:01:12;;;;;;;;;;;8.00;78.60;;;;;;5059098;28;20402;-66
2022/03/31 05:03:39;;;;;;;;;;;8.00;78.60;;;;;;5056545;28;19912;-67
2022/03/31 05:06:05;;;;;;;;;;;8.00;78.60;;;;;;5056423;28;19916;-67
2022/03/31 05:08:30;;;;;;;;;;;8.00;78.80;;;;;;5057022;28;20374;-66
2022/03/31 05:10:56;;;;;;;;;;;8.00;78.50;;;;;;5060608;28;19908;-67
2022/03/31 05:13:21;;;;;;;;;;;8.00;78.60;;;;;;5057930;28;19917;-67
2022/03/31 05:15:47;;;;;;;;;;;8.00;78.80;;;;;;5055031;28;19916;-66
2022/03/31 05:18:13;;;;;;;;;;;8.00;78.90;;;;;;5055793;28;20293;-67
2022/03/31 05:20:39;;;;;;;;;;;8.00;78.80;;;;;;5051042;28;19909;-66
2022/03/31 05:23:05;;;;;;;;;;;8.00;79.00;;;;;;5056830;28;20596;-67
2022/03/31 05:25:30;;;;;;;;;;;8.00;78.70;;;;;;5049368;28;20344;-67
2022/03/31 05:27:58;;;;;;;;;;;8.00;78.80;;;;;;5051600;28;19912;-66
2022/03/31 05:30:24;;;;;;;;;;;8.00;78.90;;;;;;5053502;28;20003;-67
2022/03/31 05:32:51;;;;;;;;;;;8.00;78.80;;;;;;5054159;28;19943;-66
2022/03/31 05:35:18;;;;;;;;;;;8.00;79.00;;;;;;5052347;28;19916;-66
2022/03/31 05:37:44;;;;;;;;;;;8.00;78.90;;;;;;5050297;28;19912;-67
2022/03/31 05:40:10;;;;;;;;;;;8.00;79.00;;;;;;5054016;28;19978;-66
2022/03/31 05:42:37;;;;;;;;;;;8.00;79.00;;;;;;5046316;28;20015;-66
2022/03/31 05:45:03;;;;;;;;;;;8.00;78.90;;;;;;5051561;28;19939;-66
2022/03/31 05:47:29;;;;;;;;;;;8.00;79.10;;;;;;5055793;28;19940;-66
2022/03/31 05:49:54;;;;;;;;;;;8.00;79.10;;;;;;5054564;28;20002;-66
2022/03/31 05:52:20;;;;;;;;;;;8.00;79.00;;;;;;5044318;28;19920;-66
2022/03/31 05:54:46;;;;;;;;;;;8.00;79.00;;;;;;5054735;28;20019;-66
2022/03/31 05:57:12;;;;;;;;;;;8.00;79.10;;;;;;5035163;28;20258;-66
2022/03/31 05:59:37;;;;;;;;;;;8.00;79.10;;;;;;5051618;28;19912;-66
2022/03/31 06:02:03;;;;;;;;;;;8.00;79.10;;;;;;5051691;28;20027;-66
2022/03/31 06:04:29;;;;;;;;;;;7.90;79.10;;;;;;5055486;28;20357;-66
2022/03/31 06:06:54;;;;;;;;;;;8.00;79.10;;;;;;5040675;28;19938;-66
2022/03/31 06:09:20;;;;;;;;;;;7.90;79.20;;;;;;5056250;28;19921;-66
2022/03/31 06:11:45;;;;;;;;;;;7.90;79.10;;;;;;5053415;28;19917;-66
2022/03/31 06:14:11;;;;;;;;;;;7.90;79.20;;;;;;5057508;28;19917;-66
2022/03/31 06:16:37;;;;;;;;;;;7.90;79.30;;;;;;5049914;28;19956;-66
2022/03/31 06:19:02;;;;;;;;;;;8.00;79.20;;;;;;5055050;28;19912;-67
2022/03/31 06:21:28;;;;;;;;;;;7.90;79.00;;;;;;5059769;28;20003;-66
2022/03/31 06:23:53;;;;;;;;;;;7.90;79.30;;;;;;5057374;28;19909;-66
2022/03/31 06:26:19;;;;;;;;;;;7.90;79.30;;;;;;5051877;28;19948;-66
2022/03/31 06:28:45;;;;;;;;;;;7.90;79.40;;;;;;5046213;28;19916;-66
2022/03/31 06:31:10;;;;;;;;;;;7.90;79.50;;;;;;5041149;28;19912;-66
2022/03/31 06:33:37;;;;;;;;;;;7.90;79.50;;;;;;5055666;28;19974;-66
2022/03/31 06:36:03;;;;;;;;;;;7.90;79.50;;;;;;5054072;28;19919;-66
2022/03/31 06:38:28;;;;;;;;;;;7.90;79.50;;;;;;5036828;28;19913;-66
2022/03/31 06:41:06;;;;;;;;;;;7.90;79.50;;;;;;5054567;28;20346;-66
2022/03/31 06:43:35;;;;;;;;;;;7.90;79.60;;;;;;5054224;28;19925;-66
2022/03/31 06:46:00;;;;;;;;;;;7.90;79.70;;;;;;5042214;28;19920;-66
2022/03/31 06:48:26;;;;;;;;;;;7.90;79.70;;;;;;5060200;28;19916;-66
2022/03/31 06:50:52;;;;;;;;;;;7.90;79.60;;;;;;5057715;28;19999;-66
2022/03/31 06:53:18;;;;;;;;;;;7.90;79.70;;;;;;5052058;28;19916;-66
2022/03/31 06:55:47;;;;;;;;;;;7.90;79.70;;;;;;5057877;28;19978;-66
2022/03/31 06:58:12;;;;;;;;;;;7.90;79.80;;;;;;5055043;28;19956;-66
2022/03/31 07:00:38;;;;;;;;;;;7.90;79.70;;;;;;5054504;28;19913;-66
2022/03/31 07:03:03;;;;;;;;;;;7.90;79.80;;;;;;5053711;28;20376;-66
2022/03/31 07:05:29;;;;;;;;;;;8.00;79.70;;;;;;5073213;28;19925;-66
2022/03/31 07:07:54;;;;;;;;;;;8.00;79.70;;;;;;5054528;28;19982;-66
2022/03/31 07:10:21;;;;;;;;;;;8.00;79.80;;;;;;5048923;28;19920;-66
2022/03/31 07:12:47;;;;;;;;;;;8.00;79.70;;;;;;5056625;28;19967;-66
2022/03/31 07:15:13;;;;;;;;;;;8.00;79.80;;;;;;5058871;28;19916;-66
2022/03/31 07:17:38;;;;;;;;;;;8.00;79.90;;;;;;5050151;28;19913;-66
2022/03/31 07:20:04;;;;;;;;;;;8.00;79.80;;;;;;5052624;28;19916;-66
2022/03/31 07:22:30;;;;;;;;;;;8.00;79.90;;;;;;5056059;28;19917;-66
2022/03/31 07:24:55;;;;;;;;;;;8.00;79.90;;;;;;5056464;28;20262;-66
2022/03/31 07:27:21;;;;;;;;;;;8.10;80.00;;;;;;5045649;28;19998;-66
2022/03/31 07:29:46;;;;;;;;;;;8.00;79.80;;;;;;5059222;28;19950;-66
2022/03/31 07:32:12;;;;;;;;;;;8.00;79.80;;;;;;5058941;28;19919;-66
2022/03/31 07:34:37;;;;;;;;;;;8.00;79.80;;;;;;5049634;28;19928;-66
2022/03/31 07:37:04;;;;;;;;;;;8.00;79.90;;;;;;5042223;28;19909;-66
2022/03/31 07:39:29;;;;;;;;;;;8.10;79.90;;;;;;5047002;28;20653;-66
2022/03/31 07:41:55;;;;;;;;;;;8.10;80.00;;;;;;5059625;28;19913;-66
2022/03/31 07:44:20;;;;;;;;;;;8.10;80.00;;;;;;5053083;28;19975;-66
2022/03/31 07:46:46;;;;;;;;;;;8.10;79.90;;;;;;5059094;28;20042;-66
2022/03/31 07:49:13;;;;;;;;;;;8.10;79.90;;;;;;5060056;28;20277;-66
2022/03/31 07:51:38;;;;;;;;;;;8.20;79.70;;;;;;5052178;28;19999;-66
2022/03/31 07:54:04;;;;;;;;;;;8.20;79.80;;;;;;5054452;28;20030;-66
2022/03/31 07:56:29;;;;;;;;;;;8.20;79.60;;;;;;5056860;28;19917;-66
2022/03/31 07:58:55;;;;;;;;;;;8.20;79.80;;;;;;5056300;28;20007;-66
2022/03/31 08:01:20;;;;;;;;;;;8.30;79.60;;;;;;5051801;28;19950;-66
2022/03/31 08:03:46;;;;;;;;;;;8.30;79.70;;;;;;5055326;28;19909;-66
2022/03/31 08:06:11;;;;;;;;;;;8.30;79.50;;;;;;5074789;28;19909;-66
2022/03/31 08:08:38;;;;;;;;;;;8.30;79.60;;;;;;5046212;28;20535;-66
2022/03/31 08:11:04;;;;;;;;;;;8.40;79.60;;;;;;5055517;28;19909;-66
2022/03/31 08:13:30;;;;;;;;;;;8.40;79.60;;;;;;5054624;28;20498;-66
2022/03/31 08:15:56;;;;;;;;;;;8.40;79.50;;;;;;5054325;28;20004;-66
2022/03/31 08:18:33;;;;;;;;;;;8.40;79.40;;;;;;5038588;28;20007;-66
2022/03/31 08:20:59;;;;;;;;;;;8.50;79.50;;;;;;5057562;28;20601;-66
2022/03/31 08:23:25;;;;;;;;;;;8.50;79.40;;;;;;5042239;28;19913;-66
2022/03/31 08:25:51;;;;;;;;;;;8.50;79.30;;;;;;5051434;28;19913;-66
2022/03/31 08:28:16;;;;;;;;;;;8.60;79.30;;;;;;5042368;28;19920;-66
2022/03/31 08:30:42;;;;;;;;;;;8.60;79.20;;;;;;5043164;28;20418;-66
2022/03/31 08:33:07;;;;;;;;;;;8.60;79.10;;;;;;5051657;28;19908;-66
2022/03/31 08:35:33;;;;;;;;;;;8.60;79.10;;;;;;5037404;28;19923;-66
2022/03/31 08:37:59;;;;;;;;;;;8.70;79.30;;;;;;5055669;28;20087;-66
2022/03/31 08:40:24;;;;;;;;;;;8.70;79.20;;;;;;5059919;28;19974;-66
2022/03/31 08:42:50;;;;;;;;;;;8.70;79.30;;;;;;5059723;28;19920;-66
2022/03/31 08:45:17;;;;;;;;;;;8.70;79.30;;;;;;5052876;28;20344;-65
2022/03/31 08:47:46;;;;;;;;;;;8.70;79.30;;;;;;5055362;28;20011;-66
2022/03/31 08:50:12;;;;;;;;;;;8.70;79.50;;;;;;5056223;28;20438;-66
2022/03/31 08:52:38;;;;;;;;;;;8.70;79.50;;;;;;5072644;28;19912;-66
2022/03/31 08:55:04;;;;;;;;;;;8.70;79.40;;;;;;5056785;28;19923;-66
2022/03/31 08:57:42;;;;;;;;;;;8.70;79.50;;;;;;5057909;28;19928;-66
2022/03/31 09:00:08;;;;;;;;;;;8.80;79.30;;;;;;5050186;28;19912;-66
2022/03/31 09:02:34;;;;;;;;;;;8.80;79.30;;;;;;5055025;28;19912;-66
2022/03/31 09:05:00;;;;;;;;;;;8.80;79.30;;;;;;5057780;28;19939;-66
2022/03/31 09:07:26;;;;;;;;;;;8.90;79.40;;;;;;5055543;28;19994;-67
2022/03/31 09:09:51;;;;;;;;;;;8.90;79.30;;;;;;5053380;28;19948;-66
2022/03/31 09:12:17;;;;;;;;;;;8.90;79.90;;;;;;5056278;28;19923;-66
2022/03/31 09:14:43;;;;;;;;;;;8.90;79.40;;;;;;5060107;28;20541;-66
2022/03/31 09:17:13;;;;;;;;;;;8.90;79.40;;;;;;5051290;28;19920;-66
2022/03/31 09:19:38;;;;;;;;;;;8.90;79.40;;;;;;5053091;28;19909;-67
2022/03/31 09:22:04;;;;;;;;;;;8.90;79.30;;;;;;5059707;28;19920;-67
2022/03/31 09:24:31;;;;;;;;;;;8.90;79.50;;;;;;5057181;28;19995;-67
2022/03/31 09:26:58;;;;;;;;;;;8.90;79.40;;;;;;5051684;28;19919;-67
2022/03/31 09:29:24;;;;;;;;;;;9.00;79.30;;;;;;5056752;28;20682;-66
2022/03/31 09:31:53;;;;;;;;;;;9.00;79.30;;;;;;5059494;28;20023;-66
2022/03/31 09:34:20;;;;;;;;;;;9.00;79.10;;;;;;5053186;28;19917;-66
2022/03/31 09:36:49;;;;;;;;;;;9.10;79.30;;;;;;5043152;28;20032;-66
2022/03/31 09:39:17;;;;;;;;;;;9.10;79.10;;;;;;5056620;28;20032;-66
2022/03/31 09:41:44;;;;;;;;;;;9.20;79.10;;;;;;5067048;28;19974;-66
2022/03/31 09:44:17;;;;;;;;;;;9.20;79.10;;;;;;5036625;28;19975;-66
2022/03/31 09:46:43;;;;;;;;;;;9.20;79.70;;;;;;5062931;28;19992;-67
2022/03/31 09:49:11;;;;;;;;;;;9.20;79.00;;;;;;5062765;28;19923;-66
2022/03/31 09:51:37;;;;;;;;;;;9.30;79.10;;;;;;5060238;28;19963;-66
2022/03/31 09:54:03;;;;;;;;;;;9.30;79.00;;;;;;5060740;28;19959;-66
2022/03/31 09:56:28;;;;;;;;;;;9.40;79.00;;;;;;5062917;28;19909;-66
2022/03/31 09:58:59;;;;;;;;;;;9.40;78.80;;;;;;5062966;28;20670;-66
2022/03/31 10:01:25;;;;;;;;;;;9.40;78.90;;;;;;5047579;28;20340;-66
2022/03/31 10:03:54;;;;;;;;;;;9.40;78.80;;;;;;5048546;28;19916;-66
2022/03/31 10:06:19;;;;;;;;;;;9.40;78.70;;;;;;5063625;28;20644;-66
2022/03/31 10:08:46;;;;;;;;;;;9.40;78.70;;;;;;5056588;28;19917;-66
2022/03/31 10:11:12;;;;;;;;;;;9.40;78.70;;;;;;5048105;28;19963;-66
2022/03/31 10:13:42;;;;;;;;;;;9.40;78.70;;;;;;5059905;28;20346;-66
2022/03/31 10:16:09;;;;;;;;;;;9.40;78.80;;;;;;5055042;28;20007;-66
2022/03/31 10:18:35;;;;;;;;;;;9.40;78.90;;;;;;5057542;28;19917;-66
2022/03/31 10:21:01;;;;;;;;;;;9.40;79.00;;;;;;5062086;28;19959;-66
2022/03/31 10:26:21;;;;;;;;;;;9.50;79.00;;;;;;5051737;28;20361;-66
2022/03/31 10:28:56;;;;;;;;;;;9.50;79.00;;;;;;5057851;28;19913;-66
2022/03/31 10:31:32;;;;;;;;;;;9.50;78.90;;;;;;5062589;28;20022;-66
2022/03/31 10:33:57;;;;;;;;;;;9.50;79.10;;;;;;5054377;28;19928;-66
2022/03/31 10:36:23;;;;;;;;;;;9.50;79.00;;;;;;5063520;28;19912;-66
2022/03/31 10:38:53;;;;;;;;;;;9.50;79.10;;;;;;5048806;28;19938;-66
2022/03/31 10:41:27;;;;;;;;;;;9.40;79.20;;;;;;5062922;28;19923;-66
2022/03/31 10:43:56;;;;;;;;;;;9.40;79.30;;;;;;5053567;28;19912;-66
2022/03/31 10:46:22;;;;;;;;;;;9.40;79.30;;;;;;5042409;28;19958;-66
2022/03/31 10:48:51;;;;;;;;;;;9.40;79.40;;;;;;5062339;28;19916;-66
2022/03/31 10:51:17;;;;;;;;;;;9.40;79.40;;;;;;5059446;28;19909;-66
2022/03/31 10:53:49;;;;;;;;;;;9.40;79.40;;;;;;5058136;28;19918;-66
2022/03/31 10:56:19;;;;;;;;;;;9.50;79.30;;;;;;5063686;28;19962;-66
2022/03/31 10:58:45;;;;;;;;;;;9.40;79.40;;;;;;5064728;28;20003;-66
2022/03/31 11:01:11;;;;;;;;;;;9.50;79.50;;;;;;5057901;28;19999;-66
2022/03/31 11:03:37;;;;;;;;;;;9.50;79.50;;;;;;5060521;28;19920;-66
2022/03/31 11:06:08;;;;;;;;;;;9.50;79.40;;;;;;5062961;28;19909;-66
2022/03/31 11:08:43;;;;;;;;;;;9.50;79.40;;;;;;5054585;28;19916;-66
2022/03/31 11:11:18;;;;;;;;;;;9.50;79.40;;;;;;5056110;28;19909;-66
2022/03/31 11:13:45;;;;;;;;;;;9.50;79.40;;;;;;5061756;28;19955;-66
2022/03/31 11:16:11;;;;;;;;;;;9.50;79.40;;;;;;5059603;28;19916;-66
2022/03/31 11:18:36;;;;;;;;;;;9.50;79.40;;;;;;5056986;28;19958;-66
2022/03/31 11:21:02;;;;;;;;;;;9.50;79.40;;;;;;5058493;28;19946;-66
2022/03/31 11:23:29;;;;;;;;;;;9.50;79.40;;;;;;5064487;28;19921;-66
2022/03/31 11:25:54;;;;;;;;;;;9.50;79.40;;;;;;5055229;28;19909;-66
2022/03/31 11:28:20;;;;;;;;;;;9.50;79.40;;;;;;5057333;28;19917;-66
2022/03/31 11:30:48;;;;;;;;;;;9.50;79.30;;;;;;5061950;28;19917;-66
2022/03/31 11:33:14;;;;;;;;;;;9.40;79.30;;;;;;5045739;28;19913;-66
2022/03/31 11:35:40;;;;;;;;;;;9.50;79.40;;;;;;5047366;28;19931;-66
2022/03/31 11:38:10;;;;;;;;;;;9.40;79.30;;;;;;5059067;28;19981;-66
2022/03/31 11:40:36;;;;;;;;;;;9.50;79.30;;;;;;5043729;28;20003;-66
2022/03/31 11:43:05;;;;;;;;;;;9.50;79.40;;;;;;5049856;28;19966;-66
2022/03/31 11:45:36;;;;;;;;;;;9.40;79.30;;;;;;5056360;28;19923;-66
2022/03/31 11:48:12;;;;;;;;;;;9.40;79.20;;;;;;5059874;28;19970;-66
2022/03/31 11:50:39;;;;;;;;;;;9.40;79.30;;;;;;5056755;28;20004;-66
2022/03/31 11:53:20;;;;;;;;;;;9.40;79.20;;;;;;5055546;28;20392;-66
2022/03/31 11:55:55;;;;;;;;;;;9.40;79.20;;;;;;5058820;28;19975;-66
2022/03/31 11:58:23;;;;;;;;;;;9.50;79.30;;;;;;5059786;28;21379;-66
2022/03/31 12:00:50;;;;;;;;;;;9.40;79.20;;;;;;5037634;28;20024;-66
2022/03/31 12:03:17;;;;;;;;;;;9.40;79.20;;;;;;5038176;28;20015;-66
2022/03/31 12:05:44;;;;;;;;;;;9.40;79.10;;;;;;5061121;28;20000;-66
2022/03/31 12:08:09;;;;;;;;;;;9.50;79.10;;;;;;5049870;28;20011;-66
2022/03/31 12:10:35;;;;;;;;;;;9.50;79.20;;;;;;5059485;28;20459;-66
2022/03/31 12:13:01;;;;;;;;;;;9.50;79.20;;;;;;5060109;28;20424;-66
2022/03/31 12:15:28;;;;;;;;;;;9.50;79.10;;;;;;5045060;28;19955;-66
2022/03/31 12:17:59;;;;;;;;;;;9.50;79.10;;;;;;5057281;28;19915;-66
2022/03/31 12:20:25;;;;;;;;;;;9.50;79.00;;;;;;5057452;28;19916;-66
2022/03/31 12:22:51;;;;;;;;;;;9.50;79.00;;;;;;5061519;28;20273;-66
2022/03/31 12:25:27;;;;;;;;;;;9.50;79.00;;;;;;5049591;28;19916;-66
2022/03/31 12:27:52;;;;;;;;;;;9.60;79.20;;;;;;5042842;28;19994;-66
2022/03/31 12:30:18;;;;;;;;;;;9.60;78.90;;;;;;5060812;28;19924;-66
2022/03/31 12:32:47;;;;;;;;;;;9.60;78.80;;;;;;5062009;28;19909;-66
2022/03/31 12:35:13;;;;;;;;;;;9.70;78.70;;;;;;5053998;28;19959;-66
2022/03/31 12:37:39;;;;;;;;;;;9.70;78.70;;;;;;5059336;28;20463;-66
2022/03/31 12:40:10;;;;;;;;;;;9.70;78.60;;;;;;5061245;28;20367;-66
2022/03/31 12:42:36;;;;;;;;;;;9.70;78.40;;;;;;5049772;28;19912;-66
2022/03/31 12:45:14;;;;;;;;;;;9.70;78.50;;;;;;5052345;28;19912;-66
2022/03/31 12:47:41;;;;;;;;;;;9.70;78.50;;;;;;5039352;28;20707;-66
2022/03/31 12:50:14;;;;;;;;;;;9.70;78.50;;;;;;5059052;28;20007;-66
2022/03/31 12:52:50;;;;;;;;;;;9.70;78.60;;;;;;5055752;28;19937;-66
2022/03/31 12:55:16;;;;;;;;;;;9.70;78.60;;;;;;5058458;28;19917;-66
2022/03/31 12:57:41;;;;;;;;;;;9.70;78.70;;;;;;5056297;28;19917;-66
2022/03/31 13:00:14;;;;;;;;;;;9.70;78.70;;;;;;5051851;28;20011;-66
2022/03/31 13:02:40;;;;;;;;;;;9.60;78.80;;;;;;5053250;28;20262;-66
2022/03/31 13:05:06;;;;;;;;;;;9.60;78.80;;;;;;5059812;28;20495;-66
2022/03/31 13:07:32;;;;;;;;;;;9.60;79.50;;;;;;5065774;28;20038;-66
2022/03/31 13:09:59;;;;;;;;;;;9.60;79.00;;;;;;5056038;28;19920;-66
2022/03/31 13:12:26;;;;;;;;;;;9.60;79.10;;;;;;5056786;28;20011;-66
2022/03/31 13:14:52;;;;;;;;;;;9.60;79.10;;;;;;5065216;28;19913;-66
2022/03/31 13:17:18;;;;;;;;;;;9.60;79.10;;;;;;5055784;28;20329;-66
2022/03/31 13:19:44;;;;;;;;;;;9.60;79.20;;;;;;5058458;28;19916;-66
2022/03/31 13:22:11;;;;;;;;;;;9.60;79.10;;;;;;5047430;28;20443;-67
2022/03/31 13:24:37;;;;;;;;;;;9.60;79.20;;;;;;5058384;28;19939;-66
2022/03/31 13:27:04;;;;;;;;;;;9.60;79.20;;;;;;5061798;28;19925;-66
2022/03/31 13:29:30;;;;;;;;;;;9.60;79.20;;;;;;5060088;28;19971;-66
2022/03/31 13:31:56;;;;;;;;;;;9.60;79.30;;;;;;5059193;28;19912;-66
2022/03/31 13:34:27;;;;;;;;;;;9.50;79.40;;;;;;5043060;28;20290;-66
2022/03/31 13:36:54;;;;;;;;;;;9.60;79.30;;;;;;5062673;28;20003;-66
2022/03/31 13:39:20;;;;;;;;;;;9.50;79.40;;;;;;5061550;28;19946;-66
2022/03/31 13:41:46;;;;;;;;;;;9.50;79.50;;;;;;5063695;28;19919;-66
2022/03/31 13:44:12;;;;;;;;;;;9.50;79.60;;;;;;5064106;28;20473;-66
2022/03/31 13:46:39;;;;;;;;;;;9.50;79.70;;;;;;5063549;28;20369;-66
2022/03/31 13:49:05;;;;;;;;;;;9.50;79.90;;;;;;5063543;28;19920;-66
2022/03/31 13:51:31;;;;;;;;;;;9.50;79.80;;;;;;5059653;28;19909;-67
2022/03/31 13:54:00;;;;;;;;;;;9.50;80.00;;;;;;5059376;28;19916;-66
2022/03/31 13:56:29;;;;;;;;;;;9.40;79.80;;;;;;5062655;28;19912;-66
2022/03/31 14:01:38;;;;;;;;;;;9.40;80.00;;;;;;5054643;28;19982;-66
2022/03/31 14:04:04;;;;;;;;;;;9.40;80.10;;;;;;5060986;28;20019;-66
2022/03/31 14:06:29;;;;;;;;;;;9.40;80.30;;;;;;5055578;28;19917;-66
2022/03/31 14:08:55;;;;;;;;;;;9.40;80.40;;;;;;5053280;28;19917;-66
2022/03/31 14:11:22;;;;;;;;;;;9.40;80.30;;;;;;5049120;28;19919;-66
2022/03/31 14:13:48;;;;;;;;;;;9.40;80.20;;;;;;5060314;28;20459;-66
2022/03/31 14:16:14;;;;;;;;;;;9.30;80.20;;;;;;5055891;28;19917;-66
2022/03/31 14:18:41;;;;;;;;;;;9.30;80.30;;;;;;5055528;28;20534;-66
2022/03/31 14:21:07;;;;;;;;;;;9.30;80.50;;;;;;5059422;28;19916;-67
2022/03/31 14:23:33;;;;;;;;;;;9.30;80.30;;;;;;5055199;28;19956;-66
2022/03/31 14:25:58;;;;;;;;;;;9.30;80.60;;;;;;5054391;28;19978;-66
2022/03/31 14:28:25;;;;;;;;;;;9.30;80.50;;;;;;5056237;28;19915;-66
2022/03/31 14:30:51;;;;;;;;;;;9.30;80.30;;;;;;5060501;28;19923;-66
2022/03/31 14:33:16;;;;;;;;;;;9.30;80.30;;;;;;5050372;28;19909;-66
2022/03/31 14:35:42;;;;;;;;;;;9.30;80.40;;;;;;5053302;28;20003;-66